Time;durP1;ratioP1;P1;durP2;ratioP2;P2;SDS_P1;SDS_P2;PMS_P1;PMS_P2;Temp;Humidity;BMP_temperature;BMP_pressure;BME280_temperature;BME280_humidity;BME280_pressure;Samples;Min_cycle;Max_cycle;Signal;HPM_P1;HPM_P2
2022/04/20 00:01:27;;;;;;;1.40;1.30;;;;;;;13.49;50.06;98970.65;1821412;78;21056;-65
2022/04/20 00:03:53;;;;;;;1.20;1.10;;;;;;;13.49;50.04;98973.31;1856859;77;21497;-64
2022/04/20 00:06:22;;;;;;;1.30;1.20;;;;;;;13.47;50.07;98969.52;1856908;77;21509;-64
2022/04/20 00:08:48;;;;;;;1.40;1.30;;;;;;;13.47;50.07;98968.17;1856535;77;21056;-64
2022/04/20 00:11:16;;;;;;;1.60;1.50;;;;;;;13.48;50.06;98969.83;1856738;77;21517;-64
2022/04/20 00:13:44;;;;;;;1.35;1.25;;;;;;;13.48;50.05;98966.32;1856668;77;21001;-64
2022/04/20 00:16:11;;;;;;;1.30;1.10;;;;;;;13.47;50.07;98959.36;1855942;76;21541;-64
2022/04/20 00:18:37;;;;;;;1.37;1.27;;;;;;;13.46;50.06;98962.55;1856771;77;21142;-64
2022/04/20 00:21:04;;;;;;;1.60;1.50;;;;;;;13.46;50.05;98954.55;1856497;77;21001;-64
2022/04/20 00:23:32;;;;;;;1.37;1.27;;;;;;;13.46;50.06;98961.22;1856750;77;21033;-65
2022/04/20 00:25:59;;;;;;;1.40;1.30;;;;;;;13.47;50.08;98968.17;1856592;77;21017;-65
2022/04/20 00:28:27;;;;;;;1.40;1.30;;;;;;;13.46;50.05;98976.38;1856707;77;22043;-64
2022/04/20 00:30:53;;;;;;;1.45;1.20;;;;;;;13.46;50.08;98972.37;1856605;77;21141;-64
2022/04/20 00:33:20;;;;;;;1.50;1.40;;;;;;;13.46;50.08;98976.38;1804258;79;21018;-63
2022/04/20 00:35:46;;;;;;;1.40;1.30;;;;;;;13.45;50.09;98974.23;1839980;77;21460;-64
2022/04/20 00:38:13;;;;;;;1.50;1.40;;;;;;;13.46;50.08;98973.71;1840351;78;21005;-64
2022/04/20 00:40:41;;;;;;;1.50;1.40;;;;;;;13.45;50.08;98972.09;1840657;77;21042;-64
2022/04/20 00:43:07;;;;;;;1.20;1.10;;;;;;;13.44;50.09;98977.91;1856772;77;21060;-64
2022/04/20 00:45:34;;;;;;;1.57;1.30;;;;;;;13.45;50.08;98982.76;1856607;77;21013;-64
2022/04/20 00:48:01;;;;;;;1.60;1.50;;;;;;;13.45;50.10;98984.91;1856812;77;21520;-64
2022/04/20 00:50:30;;;;;;;1.37;1.27;;;;;;;13.44;50.07;98984.58;1834035;76;20990;-63
2022/04/20 00:52:56;;;;;;;1.40;1.30;;;;;;;13.44;50.10;98987.25;1823119;78;21002;-64
2022/04/20 00:55:24;;;;;;;1.42;1.32;;;;;;;13.43;50.10;98985.63;1823064;78;21191;-64
2022/04/20 00:57:50;;;;;;;1.32;1.22;;;;;;;13.43;50.07;98985.63;1823137;78;22023;-64
2022/04/20 01:00:17;;;;;;;1.40;1.30;;;;;;;13.42;50.08;98989.30;1823143;77;21064;-64
2022/04/20 01:02:46;;;;;;;1.57;1.47;;;;;;;13.43;50.08;98995.48;1791509;78;20993;-63
2022/04/20 01:05:14;;;;;;;1.27;1.17;;;;;;;13.42;50.10;98987.97;1823390;78;21009;-64
2022/04/20 01:07:49;;;;;;;1.20;1.10;;;;;;;13.42;50.08;98997.31;1815908;77;21151;-64
2022/04/20 01:10:17;;;;;;;1.45;1.35;;;;;;;13.42;50.10;98997.31;1842626;77;20978;-64
2022/04/20 01:12:46;;;;;;;1.40;1.30;;;;;;;13.41;50.09;98991.68;1835820;77;21037;-63
2022/04/20 01:15:33;;;;;;;1.30;1.20;;;;;;;13.41;50.11;98998.88;1842741;77;21092;-65
2022/04/20 01:18:19;;;;;;;1.72;1.62;;;;;;;13.40;50.11;98996.70;1842880;77;21092;-64
2022/04/20 01:20:55;;;;;;;1.30;1.20;;;;;;;13.40;50.12;99003.88;1842596;77;21342;-64
2022/04/20 01:23:26;;;;;;;1.37;1.27;;;;;;;13.39;50.12;98996.92;1834441;77;21005;-64
2022/04/20 01:25:55;;;;;;;1.30;1.20;;;;;;;13.37;50.14;98991.78;1737605;78;21525;-64
2022/04/20 01:28:24;;;;;;;1.40;1.30;;;;;;;13.38;50.15;98992.08;1819180;77;21513;-64
2022/04/20 01:31:17;;;;;;;1.20;1.10;;;;;;;13.37;50.15;98993.12;1751240;81;21025;-65
2022/04/20 01:33:53;;;;;;;1.37;1.27;;;;;;;13.37;50.16;99000.60;1779011;78;20999;-64
2022/04/20 01:36:19;;;;;;;1.45;1.35;;;;;;;13.36;50.17;98998.95;1820411;78;21064;-64
2022/04/20 01:38:46;;;;;;;1.22;1.15;;;;;;;13.36;50.16;98995.47;1820266;78;21001;-64
2022/04/20 01:41:15;;;;;;;1.22;1.12;;;;;;;13.35;50.18;98990.66;1820739;77;21022;-64
2022/04/20 01:43:42;;;;;;;1.52;1.22;;;;;;;13.35;50.18;98994.66;1820305;78;20989;-64
2022/04/20 01:46:15;;;;;;;1.45;1.32;;;;;;;13.35;50.18;98992.51;1820176;78;20998;-64
2022/04/20 01:48:54;;;;;;;1.20;1.10;;;;;;;13.34;50.18;98995.66;1820223;78;21053;-64
2022/04/20 01:51:50;;;;;;;1.57;1.40;;;;;;;13.34;50.17;98992.99;1817677;78;21037;-64
2022/04/20 01:54:35;;;;;;;1.50;1.40;;;;;;;13.34;50.19;98996.19;1781625;80;21071;-64
2022/04/20 01:57:09;;;;;;;1.30;1.20;;;;;;;13.33;50.19;98991.89;1740668;80;21028;-64
2022/04/20 01:59:38;;;;;;;1.35;1.25;;;;;;;13.32;50.21;98990.23;1775353;79;21136;-65
2022/04/20 02:04:52;;;;;;;1.30;1.20;;;;;;;13.31;50.20;98994.75;1847754;77;21036;-64
2022/04/20 02:07:19;;;;;;;1.57;1.47;;;;;;;13.32;50.21;98989.71;1848283;77;21003;-64
2022/04/20 02:09:48;;;;;;;1.40;1.30;;;;;;;13.31;50.21;98989.42;1847873;77;21045;-64
2022/04/20 02:12:17;;;;;;;1.70;1.30;;;;;;;13.32;50.20;98990.23;1847938;77;21255;-64
2022/04/20 02:14:50;;;;;;;1.27;1.17;;;;;;;13.31;50.22;98979.27;1831690;76;21013;-64
2022/04/20 02:17:36;;;;;;;1.32;1.22;;;;;;;13.30;50.21;98989.09;1843908;77;21049;-63
2022/04/20 02:20:08;;;;;;;1.27;1.17;;;;;;;13.31;50.21;98992.09;1847980;77;21049;-64
2022/04/20 02:22:35;;;;;;;1.35;1.22;;;;;;;13.31;50.20;98987.27;1847895;77;21521;-64
2022/04/20 02:25:06;;;;;;;1.62;1.52;;;;;;;13.30;50.21;98997.09;1847871;77;21846;-64
2022/04/20 02:27:33;;;;;;;1.80;1.60;;;;;;;13.30;50.21;98998.44;1847930;77;21018;-64
2022/04/20 02:30:02;;;;;;;1.25;1.15;;;;;;;13.31;50.22;99000.61;1847792;77;21060;-65
2022/04/20 02:32:28;;;;;;;1.65;1.47;;;;;;;13.30;50.22;98997.09;1843066;76;21061;-64
2022/04/20 02:34:56;;;;;;;1.27;1.17;;;;;;;13.29;50.22;98995.94;1839831;78;20982;-64
2022/04/20 02:37:24;;;;;;;1.57;1.40;;;;;;;13.30;50.23;98998.44;1839937;78;21002;-63
2022/04/20 02:39:54;;;;;;;1.30;1.20;;;;;;;13.30;50.22;99006.95;1839786;78;21037;-65
2022/04/20 02:42:21;;;;;;;1.47;1.37;;;;;;;13.30;50.21;99002.95;1839788;78;21010;-64
2022/04/20 02:44:50;;;;;;;1.30;1.20;;;;;;;13.30;50.21;99006.44;1839685;78;20990;-64
2022/04/20 02:47:18;;;;;;;1.02;1.00;;;;;;;13.30;50.21;99001.10;1839914;78;21022;-64
2022/04/20 02:49:45;;;;;;;1.40;1.30;;;;;;;13.29;50.21;98996.78;1841065;76;21129;-63
2022/04/20 02:52:13;;;;;;;1.27;1.17;;;;;;;13.30;50.21;98998.95;1839673;78;21182;-63
2022/04/20 02:54:40;;;;;;;1.47;1.32;;;;;;;13.31;50.20;99002.76;1839776;78;21026;-64
2022/04/20 02:57:07;;;;;;;1.47;1.37;;;;;;;13.30;50.20;99003.77;1839752;78;21025;-64
2022/04/20 02:59:34;;;;;;;1.70;1.60;;;;;;;13.30;50.19;99005.63;1839800;77;21062;-64
2022/04/20 03:02:02;;;;;;;1.10;1.10;;;;;;;13.30;50.20;98996.29;1818812;78;21519;-64
2022/04/20 03:04:29;;;;;;;1.30;1.20;;;;;;;13.30;50.19;98998.44;1845435;77;20958;-64
2022/04/20 03:06:56;;;;;;;1.40;1.20;;;;;;;13.30;50.19;99003.77;1856289;76;21036;-64
2022/04/20 03:09:25;;;;;;;1.10;1.02;;;;;;;13.29;50.19;99000.78;1855209;77;21021;-64
2022/04/20 03:11:53;;;;;;;1.30;1.20;;;;;;;13.30;50.20;99003.77;1856656;77;21009;-64
2022/04/20 03:14:21;;;;;;;1.22;1.12;;;;;;;13.29;50.17;99005.27;1856754;77;21205;-64
2022/04/20 03:16:50;;;;;;;1.50;1.40;;;;;;;13.29;50.20;99007.94;1856585;77;21037;-64
2022/04/20 03:19:16;;;;;;;1.25;1.15;;;;;;;13.29;50.19;99011.94;1856739;77;21005;-64
2022/04/20 03:21:44;;;;;;;1.40;1.30;;;;;;;13.30;50.20;99014.95;1856609;77;20994;-63
2022/04/20 03:24:10;;;;;;;1.35;1.25;;;;;;;13.29;50.20;99017.27;1844952;76;20991;-64
2022/04/20 03:26:45;;;;;;;1.27;1.17;;;;;;;13.29;50.22;99015.94;1878942;76;21095;-64
2022/04/20 03:29:18;;;;;;;1.65;1.45;;;;;;;13.28;50.20;99019.65;1841616;76;20998;-63
2022/04/20 03:31:46;;;;;;;1.30;1.20;;;;;;;13.29;50.21;99022.61;1821332;78;20978;-64
2022/04/20 03:34:14;;;;;;;1.40;1.30;;;;;;;13.28;50.20;99024.46;1821470;78;21058;-64
2022/04/20 03:36:42;;;;;;;1.45;1.35;;;;;;;13.28;50.21;99027.13;1821471;78;21321;-66
2022/04/20 03:39:09;;;;;;;1.20;1.10;;;;;;;13.28;50.21;99027.65;1828307;76;21200;-64
2022/04/20 03:41:36;;;;;;;1.30;1.20;;;;;;;13.27;50.23;99028.66;1854385;77;21457;-65
2022/04/20 03:44:05;;;;;;;1.50;1.40;;;;;;;13.28;50.22;99031.13;1856668;77;21092;-65
2022/04/20 03:46:32;;;;;;;1.40;1.30;;;;;;;13.28;50.22;99031.13;1856675;77;20990;-64
2022/04/20 03:48:59;;;;;;;1.40;1.30;;;;;;;13.28;50.22;99022.31;1856766;77;21044;-63
2022/04/20 03:51:26;;;;;;;1.30;1.20;;;;;;;13.28;50.22;99025.80;1856891;77;21755;-64
2022/04/20 03:53:53;;;;;;;1.32;1.22;;;;;;;13.28;50.21;99021.80;1856644;77;21077;-64
2022/04/20 03:56:22;;;;;;;1.32;1.22;;;;;;;13.29;50.23;99015.94;1854931;76;20979;-63
2022/04/20 03:58:48;;;;;;;1.30;1.20;;;;;;;13.29;50.22;99014.60;1845591;77;21022;-64
2022/04/20 04:01:16;;;;;;;1.37;1.27;;;;;;;13.29;50.22;99012.78;1845652;77;20990;-64
2022/04/20 04:03:43;;;;;;;1.22;1.12;;;;;;;13.28;50.22;99013.79;1845511;77;21966;-64
2022/04/20 04:06:12;;;;;;;1.50;1.40;;;;;;;13.29;50.24;99022.12;1845093;77;21557;-64
2022/04/20 04:08:42;;;;;;;1.37;1.27;;;;;;;13.29;50.23;99018.61;1845604;77;21233;-63
2022/04/20 04:11:10;;;;;;;1.45;1.35;;;;;;;13.30;50.23;99016.30;1845657;77;20990;-64
2022/04/20 04:13:37;;;;;;;1.50;1.40;;;;;;;13.30;50.23;99018.44;1847024;76;21474;-64
2022/04/20 04:16:05;;;;;;;1.20;1.10;;;;;;;13.30;50.22;99027.77;1845697;77;21143;-64
2022/04/20 04:18:31;;;;;;;1.65;1.55;;;;;;;13.30;50.23;99019.77;1815620;77;21029;-64
2022/04/20 04:21:01;;;;;;;1.40;1.30;;;;;;;13.31;50.22;99027.28;1845668;77;21029;-64
2022/04/20 04:23:29;;;;;;;1.40;1.30;;;;;;;13.30;50.24;99026.44;1845806;77;21014;-65
2022/04/20 04:25:57;;;;;;;1.15;1.10;;;;;;;13.30;50.23;99027.77;1836499;77;21005;-64
2022/04/20 04:28:29;;;;;;;1.40;1.30;;;;;;;13.31;50.23;99027.28;1842434;77;21136;-65
2022/04/20 04:30:56;;;;;;;1.50;1.40;;;;;;;13.31;50.25;99022.77;1857387;76;21002;-65
2022/04/20 04:33:24;;;;;;;1.55;1.45;;;;;;;13.31;50.26;99028.09;1856760;77;21033;-64
2022/04/20 04:35:51;;;;;;;1.40;1.30;;;;;;;13.33;50.25;99027.91;1856568;77;20993;-64
2022/04/20 04:38:19;;;;;;;1.90;1.40;;;;;;;13.34;50.26;99033.53;1856697;77;21045;-64
2022/04/20 04:40:46;;;;;;;1.40;1.30;;;;;;;13.34;50.25;99036.20;1856717;77;21092;-64
2022/04/20 04:43:14;;;;;;;1.57;1.47;;;;;;;13.33;50.23;99030.05;1856643;77;21068;-64
2022/04/20 04:48:42;;;;;;;1.80;1.40;;;;;;;13.35;50.25;99035.19;1854741;77;20973;-65
2022/04/20 04:51:11;;;;;;;1.40;1.30;;;;;;;13.36;50.24;99035.48;1856243;77;21017;-65
2022/04/20 04:53:40;;;;;;;1.77;1.60;;;;;;;13.35;50.27;99033.86;1856812;77;21437;-64
2022/04/20 04:56:06;;;;;;;1.40;1.30;;;;;;;13.36;50.29;99031.48;1856623;77;21025;-64
2022/04/20 04:58:35;;;;;;;1.82;1.60;;;;;;;13.37;50.26;99033.14;1856080;77;21072;-66
2022/04/20 05:01:04;;;;;;;1.42;1.32;;;;;;;13.37;50.28;99033.95;1856490;77;20978;-64
2022/04/20 05:03:31;;;;;;;1.32;1.22;;;;;;;13.38;50.27;99040.09;1850326;77;21042;-63
2022/04/20 05:05:58;;;;;;;1.30;1.20;;;;;;;13.39;50.29;99037.75;1835950;78;21176;-64
2022/04/20 05:08:45;;;;;;;1.70;1.60;;;;;;;13.41;50.26;99037.55;1837026;78;21586;-64
2022/04/20 05:11:11;;;;;;;1.50;1.40;;;;;;;13.40;50.27;99042.05;1837078;78;21017;-64
2022/04/20 05:13:38;;;;;;;1.60;1.50;;;;;;;13.41;50.27;99043.70;1837048;78;21025;-64
2022/04/20 05:18:39;;;;;;;1.70;1.50;;;;;;;13.47;50.26;99046.89;1870380;76;27985;-64
2022/04/20 05:21:07;;;;;;;1.52;1.40;;;;;;;13.44;50.28;99048.62;1821995;78;20990;-65
2022/04/20 05:23:35;;;;;;;1.40;1.25;;;;;;;13.45;50.27;99060.13;1793963;80;21134;-65
2022/04/20 05:26:02;;;;;;;1.45;1.35;;;;;;;13.47;50.30;99069.56;1793950;80;21278;-63
2022/04/20 05:28:31;;;;;;;1.65;1.45;;;;;;;13.47;50.28;99065.56;1804443;78;20982;-64
2022/04/20 05:30:57;;;;;;;1.40;1.30;;;;;;;13.48;50.26;99067.71;1826762;78;20986;-64
2022/04/20 05:33:24;;;;;;;1.62;1.52;;;;;;;13.48;50.28;99065.89;1805966;78;20973;-64
2022/04/20 05:35:51;;;;;;;1.60;1.50;;;;;;;13.51;50.27;99068.12;1805786;78;21122;-64
2022/04/20 05:43:51;;;;;;;1.65;1.50;;;;;;;13.55;50.27;99063.21;1826445;78;21060;-64
2022/04/20 05:46:19;;;;;;;1.65;1.55;;;;;;;13.56;50.29;99072.36;1826238;78;21052;-64
2022/04/20 05:48:47;;;;;;;1.50;1.40;;;;;;;13.56;50.29;99070.20;1825680;78;21118;-65
2022/04/20 05:51:16;;;;;;;1.65;1.47;;;;;;;13.58;50.30;99070.83;1826458;78;21466;-65
2022/04/20 05:53:44;;;;;;;1.62;1.52;;;;;;;13.60;50.29;99077.27;1826478;78;21029;-64
2022/04/20 05:56:11;;;;;;;1.32;1.22;;;;;;;13.60;50.29;99075.45;1825287;78;21017;-64
2022/04/20 05:58:40;;;;;;;1.50;1.30;;;;;;;13.60;50.29;99072.77;1826607;78;20974;-64
2022/04/20 06:01:07;;;;;;;1.40;1.30;;;;;;;13.64;50.28;99074.53;1826463;78;21246;-64
2022/04/20 06:03:52;;;;;;;1.50;1.40;;;;;;;13.63;50.27;99069.68;1826254;78;21351;-64
2022/04/20 06:06:37;;;;;;;1.37;1.27;;;;;;;13.66;50.27;99079.14;1826536;78;21072;-64
2022/04/20 06:09:07;;;;;;;1.57;1.47;;;;;;;13.66;50.26;99075.95;1825961;78;21091;-64
2022/04/20 06:11:35;;;;;;;1.50;1.40;;;;;;;13.68;50.28;99081.09;1814895;78;20958;-66
2022/04/20 06:14:03;;;;;;;1.77;1.45;;;;;;;13.68;50.28;99079.77;1825135;78;21615;-64
2022/04/20 06:16:39;;;;;;;1.25;1.15;;;;;;;13.69;50.27;99083.53;1826122;77;21164;-63
2022/04/20 06:19:07;;;;;;;1.47;1.37;;;;;;;13.71;50.28;99086.01;1832276;77;20998;-64
2022/04/20 06:21:45;;;;;;;1.60;1.50;;;;;;;13.71;50.27;99086.85;1831772;77;20990;-64
2022/04/20 06:24:14;;;;;;;1.40;1.30;;;;;;;13.72;50.28;99081.80;1827836;78;21056;-64
2022/04/20 06:26:46;;;;;;;1.30;1.20;;;;;;;13.75;50.28;99080.56;1831682;77;21201;-64
2022/04/20 06:29:15;;;;;;;1.70;1.60;;;;;;;13.75;50.27;99082.75;1829433;77;21079;-63
2022/04/20 06:31:51;;;;;;;1.42;1.32;;;;;;;13.78;50.29;99087.36;1830862;77;21186;-65
2022/04/20 06:34:25;;;;;;;1.70;1.60;;;;;;;13.79;50.28;99090.33;1830656;77;20997;-64
2022/04/20 06:36:54;;;;;;;1.77;1.67;;;;;;;13.80;50.27;99085.31;1831176;77;21045;-64
2022/04/20 06:39:28;;;;;;;1.57;1.47;;;;;;;13.82;50.27;99083.25;1831159;77;26367;-64
2022/04/20 06:42:14;;;;;;;1.32;1.22;;;;;;;13.83;50.26;99087.06;1816363;78;21053;-65
2022/04/20 06:44:58;;;;;;;1.70;1.60;;;;;;;13.84;50.26;99087.34;1787908;80;21391;-65
2022/04/20 06:47:34;;;;;;;1.92;1.40;;;;;;;13.87;50.25;99086.11;1796448;77;21017;-63
2022/04/20 06:50:07;;;;;;;1.87;1.60;;;;;;;13.89;50.28;99080.08;1787758;79;21053;-63
2022/04/20 07:00:56;;;;;;;1.52;1.42;;;;;;;13.96;50.21;99075.53;1799253;79;21009;-64
2022/04/20 07:03:43;;;;;;;1.60;1.50;;;;;;;13.98;50.19;99068.14;1799168;78;21509;-64
2022/04/20 07:06:14;;;;;;;2.08;1.60;;;;;;;14.01;50.18;99062.92;1798316;79;21316;-64
2022/04/20 07:08:48;;;;;;;1.62;1.42;;;;;;;14.03;50.22;99064.86;1798357;79;22030;-65
2022/04/20 07:11:20;;;;;;;1.65;1.50;;;;;;;14.04;50.22;99054.48;1799392;79;21032;-64
2022/04/20 07:13:51;;;;;;;1.50;1.40;;;;;;;14.05;50.21;99061.47;1799157;79;20986;-65
2022/04/20 07:16:18;;;;;;;1.47;1.37;;;;;;;14.07;50.19;99061.56;1799225;78;21080;-64
2022/04/20 07:18:48;;;;;;;1.67;1.40;;;;;;;14.09;50.21;99066.18;1798465;79;21594;-64
2022/04/20 07:21:34;;;;;;;1.45;1.35;;;;;;;14.11;50.19;99074.80;1800293;78;20998;-64
2022/04/20 07:24:20;;;;;;;1.70;1.60;;;;;;;14.12;50.16;99078.31;1799311;79;21025;-64
2022/04/20 07:26:57;;;;;;;1.52;1.40;;;;;;;14.14;50.15;99080.27;1796852;79;21068;-65
2022/04/20 07:29:41;;;;;;;1.80;1.35;;;;;;;14.14;50.15;99078.41;1823125;78;21017;-64
2022/04/20 07:32:26;;;;;;;1.47;1.37;;;;;;;14.15;50.13;99069.88;1831931;78;21273;-64
2022/04/20 07:35:14;;;;;;;1.70;1.50;;;;;;;14.16;50.11;99064.85;1830313;77;21068;-64
2022/04/20 07:37:51;;;;;;;1.70;1.60;;;;;;;14.17;50.10;99062.47;1828873;77;21056;-64
2022/04/20 07:40:20;;;;;;;1.77;1.62;;;;;;;14.18;50.11;99052.60;1831830;78;20983;-64
2022/04/20 07:42:54;;;;;;;1.72;1.62;;;;;;;14.18;50.09;99038.75;1830605;77;21049;-64
2022/04/20 07:45:28;;;;;;;1.90;1.47;;;;;;;14.20;50.10;99033.17;1830141;77;21092;-64
2022/04/20 07:47:55;;;;;;;1.45;1.35;;;;;;;14.22;50.09;99032.48;1789300;77;21006;-64
2022/04/20 07:50:36;;;;;;;1.70;1.60;;;;;;;14.22;50.08;99026.62;1831462;77;21091;-64
2022/04/20 07:53:08;;;;;;;1.50;1.37;;;;;;;14.23;50.05;99026.91;1787271;77;20997;-64
2022/04/20 07:55:37;;;;;;;1.50;1.40;;;;;;;14.25;50.06;99030.19;1820783;78;21045;-65
2022/04/20 07:58:07;;;;;;;1.50;1.40;;;;;;;14.26;50.09;99035.03;1831184;77;21142;-64
2022/04/20 08:00:36;;;;;;;1.47;1.37;;;;;;;14.28;50.04;99040.47;1831152;77;21491;-65
2022/04/20 08:03:20;;;;;;;1.40;1.30;;;;;;;14.29;50.04;99056.81;1828994;78;21470;-64
2022/04/20 08:05:52;;;;;;;1.77;1.60;;;;;;;14.31;50.02;99052.09;1831797;78;21056;-64
2022/04/20 08:08:20;;;;;;;1.50;1.40;;;;;;;14.31;50.00;99048.08;1832274;78;21053;-65
2022/04/20 08:10:47;;;;;;;1.60;1.50;;;;;;;14.32;50.00;99044.88;1831511;78;21112;-64
2022/04/20 08:14:16;;;;;;;1.72;1.50;;;;;;;14.33;49.98;99045.17;1831742;78;21458;-64
2022/04/20 08:15:55;;;;;;;1.87;1.60;;;;;;;14.35;49.98;99043.11;1806598;77;21037;-64
2022/04/20 08:18:22;;;;;;;1.65;1.52;;;;;;;14.36;49.97;99043.43;1831739;76;20982;-65
2022/04/20 08:20:52;;;;;;;2.05;1.60;;;;;;;14.36;49.97;99038.90;1784500;77;21064;-65
2022/04/20 08:23:19;;;;;;;1.50;1.40;;;;;;;14.38;49.97;99033.87;1831943;78;21270;-65
2022/04/20 08:25:47;;;;;;;1.55;1.45;;;;;;;14.39;49.97;99035.00;1831792;78;21009;-65
2022/04/20 08:28:13;;;;;;;1.70;1.50;;;;;;;14.42;49.97;99040.44;1830926;78;21052;-65
2022/04/20 08:30:40;;;;;;;1.57;1.40;;;;;;;14.43;50.00;99036.22;1831764;78;20989;-64
2022/04/20 08:33:07;;;;;;;1.70;1.60;;;;;;;14.44;49.98;99031.69;1832009;78;21001;-65
2022/04/20 08:35:35;;;;;;;1.57;1.47;;;;;;;14.46;50.04;99035.78;1831947;78;21124;-64
2022/04/20 08:38:04;;;;;;;1.60;1.50;;;;;;;14.48;50.02;99028.90;1831852;77;21067;-64
2022/04/20 08:40:33;;;;;;;1.50;1.40;;;;;;;14.49;50.01;99025.21;1831856;78;21017;-64
2022/04/20 08:43:05;;;;;;;1.87;1.77;;;;;;;14.52;50.01;99031.45;1831742;78;21036;-64
2022/04/20 08:45:37;;;;;;;1.60;1.50;;;;;;;14.53;50.05;99029.09;1830987;78;21017;-65
2022/04/20 08:48:06;;;;;;;1.50;1.40;;;;;;;14.54;50.04;99032.91;1831848;77;20994;-65
2022/04/20 08:50:33;;;;;;;1.50;1.40;;;;;;;14.56;50.01;99039.34;1831883;78;20997;-63
2022/04/20 08:53:00;;;;;;;1.72;1.62;;;;;;;14.57;50.03;99042.37;1831723;78;21096;-64
2022/04/20 08:55:28;;;;;;;1.57;1.37;;;;;;;14.58;50.01;99043.99;1827075;78;21013;-64
2022/04/20 08:57:54;;;;;;;1.30;1.20;;;;;;;14.60;50.00;99041.12;1831839;78;20985;-64
2022/04/20 09:00:24;;;;;;;1.60;1.50;;;;;;;14.61;50.03;99035.56;1831812;78;21136;-65
2022/04/20 09:02:56;;;;;;;1.50;1.40;;;;;;;14.63;50.03;99037.52;1830489;78;21057;-65
2022/04/20 09:05:25;;;;;;;1.70;1.60;;;;;;;14.64;50.00;99041.84;1831991;78;20986;-64
2022/04/20 09:07:52;;;;;;;1.80;1.45;;;;;;;14.65;50.06;99043.47;1832131;78;21018;-65
2022/04/20 09:10:19;;;;;;;1.70;1.60;;;;;;;14.66;50.03;99042.94;1831912;78;20994;-64
2022/04/20 09:13:04;;;;;;;1.50;1.40;;;;;;;14.67;50.02;99048.08;1831724;78;20978;-65
2022/04/20 09:15:32;;;;;;;1.52;1.42;;;;;;;14.68;50.01;99049.73;1826531;77;21540;-64
2022/04/20 09:18:04;;;;;;;1.40;1.30;;;;;;;14.69;49.97;99047.35;1831699;77;21049;-64
2022/04/20 09:20:32;;;;;;;1.72;1.62;;;;;;;14.70;49.98;99050.87;1830797;78;21450;-64
2022/04/20 09:23:09;;;;;;;1.50;1.40;;;;;;;14.70;49.98;99045.00;1831833;78;21079;-63
2022/04/20 09:25:38;;;;;;;1.90;1.70;;;;;;;14.72;49.96;99042.12;1831776;78;21135;-64
2022/04/20 09:28:07;;;;;;;1.60;1.50;;;;;;;14.73;49.94;99044.55;1831811;78;21560;-64
2022/04/20 09:30:39;;;;;;;1.27;1.17;;;;;;;14.73;49.89;99040.55;1832112;78;21025;-64
2022/04/20 09:33:07;;;;;;;1.70;1.60;;;;;;;14.74;49.91;99043.54;1831780;78;21025;-64
2022/04/20 09:35:46;;;;;;;1.60;1.42;;;;;;;14.75;49.92;99042.48;1831815;78;21083;-63
2022/04/20 09:38:14;;;;;;;1.90;1.52;;;;;;;14.77;49.91;99042.28;1831124;78;22065;-64
2022/04/20 09:40:43;;;;;;;2.20;1.70;;;;;;;14.78;49.91;99047.13;1832171;78;21022;-64
2022/04/20 09:43:19;;;;;;;1.62;1.52;;;;;;;14.79;49.89;99050.09;1831834;77;21029;-64
2022/04/20 09:49:07;;;;;;;1.85;1.75;;;;;;;14.81;49.87;99050.18;1831761;78;21002;-64
2022/04/20 09:51:39;;;;;;;1.55;1.45;;;;;;;14.82;49.82;99044.34;1832087;78;21230;-64
2022/04/20 09:54:28;;;;;;;1.77;1.50;;;;;;;14.83;49.83;99050.78;1814298;77;21050;-64
2022/04/20 09:57:11;;;;;;;1.50;1.40;;;;;;;14.85;49.79;99055.92;1799108;79;21493;-64
2022/04/20 09:59:59;;;;;;;1.80;1.70;;;;;;;14.84;49.80;99060.46;1799519;79;21064;-65
2022/04/20 10:02:27;;;;;;;1.67;1.40;;;;;;;14.84;49.77;99061.80;1799186;79;21036;-65
2022/04/20 10:04:55;;;;;;;1.60;1.50;;;;;;;14.84;49.79;99057.79;1799480;79;21146;-64
2022/04/20 10:07:21;;;;;;;1.40;1.30;;;;;;;14.85;49.77;99058.60;1799487;79;21025;-64
2022/04/20 10:09:48;;;;;;;1.87;1.77;;;;;;;14.84;49.78;99051.62;1799678;78;21457;-64
2022/04/20 10:12:17;;;;;;;1.52;1.40;;;;;;;14.84;49.83;99051.10;1799191;77;21001;-64
2022/04/20 10:17:43;;;;;;;1.40;1.30;;;;;;;14.85;49.81;99050.05;1799296;78;21017;-64
2022/04/20 10:20:12;;;;;;;1.50;1.35;;;;;;;14.86;49.79;99041.54;1793532;79;21261;-65
2022/04/20 10:22:40;;;;;;;1.42;1.32;;;;;;;14.85;49.78;99038.55;1793389;80;21537;-63
2022/04/20 10:25:07;;;;;;;1.27;1.17;;;;;;;14.87;49.76;99050.69;1793343;80;21073;-65
2022/04/20 10:28:03;;;;;;;1.40;1.30;;;;;;;14.87;49.79;99044.00;1794594;77;21052;-64
2022/04/20 10:30:47;;;;;;;1.50;1.40;;;;;;;14.88;49.83;99043.48;1793393;80;21148;-64
2022/04/20 10:33:19;;;;;;;1.87;1.32;;;;;;;14.89;49.76;99047.28;1793285;79;20982;-64
2022/04/20 10:36:04;;;;;;;1.40;1.30;;;;;;;14.89;49.77;99051.79;1793410;80;21058;-65
2022/04/20 10:38:33;;;;;;;1.32;1.22;;;;;;;14.90;49.77;99058.80;1793752;79;21088;-64
2022/04/20 10:41:18;;;;;;;1.57;1.47;;;;;;;14.90;49.78;99062.80;1792789;79;21056;-65
2022/04/20 10:43:45;;;;;;;1.50;1.40;;;;;;;14.90;49.78;99068.16;1793805;78;21093;-64
2022/04/20 10:46:19;;;;;;;1.40;1.30;;;;;;;14.90;49.73;99076.17;1825210;78;21018;-64
2022/04/20 10:49:02;;;;;;;1.60;1.50;;;;;;;14.90;49.76;99068.97;1826019;78;21084;-64
2022/04/20 10:51:40;;;;;;;1.47;1.37;;;;;;;14.91;49.76;99072.45;1825802;78;21005;-65
2022/04/20 10:54:27;;;;;;;1.42;1.22;;;;;;;14.91;49.76;99073.30;1826047;78;21466;-66
2022/04/20 10:57:07;;;;;;;1.57;1.47;;;;;;;14.90;49.74;99078.33;1825721;78;21123;-65
2022/04/20 10:59:36;;;;;;;1.77;1.67;;;;;;;14.90;49.68;99068.97;1825674;78;21060;-64
2022/04/20 11:02:07;;;;;;;1.30;1.20;;;;;;;14.91;49.69;99064.43;1809035;78;21085;-63
2022/04/20 11:04:48;;;;;;;1.75;1.40;;;;;;;14.91;49.70;99073.79;1793598;79;21024;-65
2022/04/20 11:07:23;;;;;;;1.40;1.30;;;;;;;14.91;49.69;99078.64;1793340;79;21028;-64
2022/04/20 11:09:57;;;;;;;1.30;1.20;;;;;;;14.91;49.69;99068.44;1793495;79;21093;-64
2022/04/20 11:18:38;;;;;;;1.22;1.15;;;;;;;14.93;49.68;99064.55;1794514;78;21076;-65
2022/04/20 11:21:24;;;;;;;1.77;1.67;;;;;;;14.94;49.72;99058.67;1799296;79;20998;-65
2022/04/20 11:24:05;;;;;;;1.35;1.25;;;;;;;14.97;49.73;99058.25;1799132;79;21564;-65
2022/04/20 11:26:44;;;;;;;1.50;1.40;;;;;;;15.00;49.76;99060.48;1799103;79;21001;-65
2022/04/20 11:29:18;;;;;;;1.30;1.20;;;;;;;15.03;49.67;99057.92;1798273;79;21005;-64
2022/04/20 11:31:51;;;;;;;1.37;1.27;;;;;;;15.05;49.58;99056.66;1799209;79;21029;-65
2022/04/20 11:34:22;;;;;;;1.35;1.25;;;;;;;15.07;49.55;99056.45;1799197;79;21556;-64
2022/04/20 11:36:53;;;;;;;1.35;1.27;;;;;;;15.09;49.50;99058.40;1800352;78;21125;-65
2022/04/20 11:39:23;;;;;;;1.30;1.20;;;;;;;15.10;49.44;99058.19;1799029;79;21025;-65
2022/04/20 11:41:51;;;;;;;1.47;1.37;;;;;;;15.12;49.43;99052.60;1799444;79;21457;-65
2022/04/20 11:44:25;;;;;;;1.30;1.20;;;;;;;15.13;49.39;99050.24;1799239;79;20981;-65
2022/04/20 11:46:58;;;;;;;1.45;1.35;;;;;;;15.14;49.37;99054.05;1799156;79;21033;-65
2022/04/20 11:49:36;;;;;;;1.17;1.15;;;;;;;15.15;49.36;99050.84;1799282;79;21756;-63
2022/04/20 11:52:09;;;;;;;1.35;1.25;;;;;;;15.17;49.30;99047.96;1800196;78;21001;-65
2022/04/20 11:54:38;;;;;;;1.02;1.02;;;;;;;15.18;49.31;99028.18;1799139;79;21533;-65
2022/04/20 11:57:09;;;;;;;1.20;1.10;;;;;;;15.18;49.30;99022.83;1798929;79;20994;-64
2022/04/20 11:59:47;;;;;;;1.60;1.50;;;;;;;15.20;49.29;99023.44;1799243;79;21040;-64
2022/04/20 12:02:15;;;;;;;1.40;1.30;;;;;;;15.20;49.27;99016.75;1799478;79;21513;-65
2022/04/20 12:04:43;;;;;;;1.45;1.35;;;;;;;15.23;49.26;99012.31;1799009;79;21025;-64
2022/04/20 12:07:11;;;;;;;1.30;1.20;;;;;;;15.26;49.23;99009.19;1799404;79;21600;-63
2022/04/20 12:09:42;;;;;;;1.42;1.32;;;;;;;15.28;49.18;99004.47;1800236;78;21017;-63
2022/04/20 12:12:12;;;;;;;1.25;1.10;;;;;;;15.31;49.14;99002.67;1783806;79;21024;-65
2022/04/20 12:14:40;;;;;;;1.50;1.40;;;;;;;15.35;49.09;99001.20;1799516;79;21142;-64
2022/04/20 12:17:20;;;;;;;1.50;1.40;;;;;;;15.40;49.06;98992.55;1799065;78;21025;-64
2022/04/20 12:19:46;;;;;;;1.72;1.37;;;;;;;15.45;48.98;98996.20;1798993;79;21497;-63
2022/04/20 12:22:15;;;;;;;1.50;1.37;;;;;;;15.51;48.90;98991.81;1799103;79;21022;-65
2022/04/20 12:24:42;;;;;;;1.72;1.30;;;;;;;15.55;48.81;98994.37;1765773;79;21009;-64
2022/04/20 12:27:21;;;;;;;1.57;1.47;;;;;;;15.58;48.70;98988.56;1805611;78;21257;-65